sensor_id;sensor_type;location;lat;lon;timestamp;temperature;humidity
22852;DHT22;11592;45.460;9.240;2023-05-29T00:01:33;22.20;99.90
22852;DHT22;11592;45.460;9.240;2023-05-29T00:04:00;22.10;99.90
22852;DHT22;11592;45.460;9.240;2023-05-29T00:06:27;22.10;99.90
22852;DHT22;11592;45.460;9.240;2023-05-29T00:08:56;22.10;99.90
22852;DHT22;11592;45.460;9.240;2023-05-29T00:11:22;22.10;99.90
22852;DHT22;11592;45.460;9.240;2023-05-29T00:13:49;22.20;99.90
22852;DHT22;11592;45.460;9.240;2023-05-29T00:16:16;22.20;99.90
22852;DHT22;11592;45.460;9.240;2023-05-29T00:18:44;22.10;99.90
22852;DHT22;11592;45.460;9.240;2023-05-29T00:21:14;22.10;99.90
22852;DHT22;11592;45.460;9.240;2023-05-29T00:23:41;22.10;99.90
22852;DHT22;11592;45.460;9.240;2023-05-29T00:26:10;22.10;99.90
22852;DHT22;11592;45.460;9.240;2023-05-29T00:28:37;22.10;99.90
22852;DHT22;11592;45.460;9.240;2023-05-29T00:31:04;22.00;99.90
22852;DHT22;11592;45.460;9.240;2023-05-29T00:33:31;21.90;99.90
22852;DHT22;11592;45.460;9.240;2023-05-29T00:35:58;21.90;99.90
22852;DHT22;11592;45.460;9.240;2023-05-29T00:38:24;21.90;99.90
22852;DHT22;11592;45.460;9.240;2023-05-29T00:40:51;21.90;99.90
22852;DHT22;11592;45.460;9.240;2023-05-29T00:43:18;21.90;99.90
22852;DHT22;11592;45.460;9.240;2023-05-29T00:45:45;21.80;99.90
22852;DHT22;11592;45.460;9.240;2023-05-29T00:48:12;21.80;99.90
22852;DHT22;11592;45.460;9.240;2023-05-29T00:50:39;21.80;99.90
22852;DHT22;11592;45.460;9.240;2023-05-29T00:53:07;21.80;99.90
22852;DHT22;11592;45.460;9.240;2023-05-29T00:55:34;21.80;99.90
22852;DHT22;11592;45.460;9.240;2023-05-29T00:58:02;21.80;99.90
22852;DHT22;11592;45.460;9.240;2023-05-29T01:00:29;21.70;99.90
22852;DHT22;11592;45.460;9.240;2023-05-29T01:02:57;21.70;99.90
22852;DHT22;11592;45.460;9.240;2023-05-29T01:05:25;21.60;99.90
22852;DHT22;11592;45.460;9.240;2023-05-29T01:07:52;21.70;99.90
22852;DHT22;11592;45.460;9.240;2023-05-29T01:10:19;21.70;99.90
22852;DHT22;11592;45.460;9.240;2023-05-29T01:12:54;21.60;99.90
22852;DHT22;11592;45.460;9.240;2023-05-29T01:15:35;21.60;99.90
22852;DHT22;11592;45.460;9.240;2023-05-29T01:21:00;21.50;99.90
22852;DHT22;11592;45.460;9.240;2023-05-29T01:23:58;21.50;99.90
22852;DHT22;11592;45.460;9.240;2023-05-29T01:26:42;21.50;99.90
22852;DHT22;11592;45.460;9.240;2023-05-29T01:29:14;21.50;99.90
22852;DHT22;11592;45.460;9.240;2023-05-29T01:31:42;21.50;99.90
22852;DHT22;11592;45.460;9.240;2023-05-29T01:34:10;21.50;99.90
22852;DHT22;11592;45.460;9.240;2023-05-29T01:36:37;21.50;99.90
22852;DHT22;11592;45.460;9.240;2023-05-29T01:39:04;21.40;99.90
22852;DHT22;11592;45.460;9.240;2023-05-29T01:41:33;21.40;99.90
22852;DHT22;11592;45.460;9.240;2023-05-29T01:44:02;21.40;99.90
22852;DHT22;11592;45.460;9.240;2023-05-29T01:46:29;21.40;99.90
22852;DHT22;11592;45.460;9.240;2023-05-29T01:48:56;21.40;99.90
22852;DHT22;11592;45.460;9.240;2023-05-29T01:51:23;21.40;99.90
22852;DHT22;11592;45.460;9.240;2023-05-29T01:53:50;21.30;99.90
22852;DHT22;11592;45.460;9.240;2023-05-29T01:56:17;21.40;99.90
22852;DHT22;11592;45.460;9.240;2023-05-29T01:58:45;21.30;99.90
22852;DHT22;11592;45.460;9.240;2023-05-29T02:01:12;21.30;99.90
22852;DHT22;11592;45.460;9.240;2023-05-29T02:03:39;21.30;99.90
22852;DHT22;11592;45.460;9.240;2023-05-29T02:06:06;21.30;99.90
22852;DHT22;11592;45.460;9.240;2023-05-29T02:08:33;21.40;99.90
22852;DHT22;11592;45.460;9.240;2023-05-29T02:11:00;21.40;99.90
22852;DHT22;11592;45.460;9.240;2023-05-29T02:13:27;21.40;99.90
22852;DHT22;11592;45.460;9.240;2023-05-29T02:15:53;21.30;99.90
22852;DHT22;11592;45.460;9.240;2023-05-29T02:18:20;21.40;99.90
22852;DHT22;11592;45.460;9.240;2023-05-29T02:20:47;21.40;99.90
22852;DHT22;11592;45.460;9.240;2023-05-29T02:23:14;21.40;99.90
22852;DHT22;11592;45.460;9.240;2023-05-29T02:25:42;21.40;99.90
22852;DHT22;11592;45.460;9.240;2023-05-29T02:28:09;21.30;99.90
22852;DHT22;11592;45.460;9.240;2023-05-29T02:30:35;21.30;99.90
22852;DHT22;11592;45.460;9.240;2023-05-29T02:33:02;21.30;99.90
22852;DHT22;11592;45.460;9.240;2023-05-29T02:35:30;21.30;99.90
22852;DHT22;11592;45.460;9.240;2023-05-29T02:37:56;21.30;99.90
22852;DHT22;11592;45.460;9.240;2023-05-29T02:40:23;21.20;99.90
22852;DHT22;11592;45.460;9.240;2023-05-29T02:42:50;21.10;99.90
22852;DHT22;11592;45.460;9.240;2023-05-29T02:45:17;21.10;99.90
22852;DHT22;11592;45.460;9.240;2023-05-29T02:47:44;21.10;99.90
22852;DHT22;11592;45.460;9.240;2023-05-29T02:50:11;21.10;99.90
22852;DHT22;11592;45.460;9.240;2023-05-29T02:52:41;21.00;99.90
22852;DHT22;11592;45.460;9.240;2023-05-29T02:55:08;21.00;99.90
22852;DHT22;11592;45.460;9.240;2023-05-29T02:57:35;21.00;99.90
22852;DHT22;11592;45.460;9.240;2023-05-29T03:00:03;21.00;99.90
22852;DHT22;11592;45.460;9.240;2023-05-29T03:02:34;21.00;99.90
22852;DHT22;11592;45.460;9.240;2023-05-29T03:05:04;21.10;99.90
22852;DHT22;11592;45.460;9.240;2023-05-29T03:07:31;21.10;99.90
22852;DHT22;11592;45.460;9.240;2023-05-29T03:09:58;21.00;99.90
22852;DHT22;11592;45.460;9.240;2023-05-29T03:12:26;21.00;99.90
22852;DHT22;11592;45.460;9.240;2023-05-29T03:14:54;21.00;99.90
22852;DHT22;11592;45.460;9.240;2023-05-29T03:17:23;21.00;99.90
22852;DHT22;11592;45.460;9.240;2023-05-29T03:19:50;20.90;99.90
22852;DHT22;11592;45.460;9.240;2023-05-29T03:22:17;21.00;99.90
22852;DHT22;11592;45.460;9.240;2023-05-29T03:24:44;21.00;99.90
22852;DHT22;11592;45.460;9.240;2023-05-29T03:27:11;21.00;99.90
22852;DHT22;11592;45.460;9.240;2023-05-29T03:29:38;20.90;99.90
22852;DHT22;11592;45.460;9.240;2023-05-29T03:32:05;20.90;99.90
22852;DHT22;11592;45.460;9.240;2023-05-29T03:34:32;21.00;99.90
22852;DHT22;11592;45.460;9.240;2023-05-29T03:36:59;21.00;99.90
22852;DHT22;11592;45.460;9.240;2023-05-29T03:39:26;21.00;99.90
22852;DHT22;11592;45.460;9.240;2023-05-29T03:41:53;20.90;99.90
22852;DHT22;11592;45.460;9.240;2023-05-29T03:44:19;21.00;99.90
22852;DHT22;11592;45.460;9.240;2023-05-29T03:46:47;21.00;99.90
22852;DHT22;11592;45.460;9.240;2023-05-29T03:49:14;21.00;99.90
22852;DHT22;11592;45.460;9.240;2023-05-29T03:51:40;21.00;99.90
22852;DHT22;11592;45.460;9.240;2023-05-29T03:54:07;21.00;99.90
22852;DHT22;11592;45.460;9.240;2023-05-29T03:56:34;21.00;99.90
22852;DHT22;11592;45.460;9.240;2023-05-29T03:59:02;21.00;99.90
22852;DHT22;11592;45.460;9.240;2023-05-29T04:01:29;21.00;99.90
22852;DHT22;11592;45.460;9.240;2023-05-29T04:03:56;20.90;99.90
22852;DHT22;11592;45.460;9.240;2023-05-29T04:06:23;20.90;99.90
22852;DHT22;11592;45.460;9.240;2023-05-29T04:08:50;20.90;99.90
22852;DHT22;11592;45.460;9.240;2023-05-29T04:11:17;20.80;99.90
22852;DHT22;11592;45.460;9.240;2023-05-29T04:13:43;20.80;99.90
22852;DHT22;11592;45.460;9.240;2023-05-29T04:16:10;20.70;99.90
22852;DHT22;11592;45.460;9.240;2023-05-29T04:18:37;20.70;99.90
22852;DHT22;11592;45.460;9.240;2023-05-29T04:21:04;20.50;99.90
22852;DHT22;11592;45.460;9.240;2023-05-29T04:23:31;20.40;99.90
22852;DHT22;11592;45.460;9.240;2023-05-29T04:25:58;20.30;99.90
22852;DHT22;11592;45.460;9.240;2023-05-29T04:28:27;20.20;99.90
22852;DHT22;11592;45.460;9.240;2023-05-29T04:30:54;20.10;99.90
22852;DHT22;11592;45.460;9.240;2023-05-29T04:33:23;20.00;99.90
22852;DHT22;11592;45.460;9.240;2023-05-29T04:35:50;19.80;99.90
22852;DHT22;11592;45.460;9.240;2023-05-29T04:38:17;19.60;99.90
22852;DHT22;11592;45.460;9.240;2023-05-29T04:40:45;19.50;99.90
22852;DHT22;11592;45.460;9.240;2023-05-29T04:43:12;19.60;99.90
22852;DHT22;11592;45.460;9.240;2023-05-29T04:45:42;19.50;99.90
22852;DHT22;11592;45.460;9.240;2023-05-29T04:48:09;19.40;99.90
22852;DHT22;11592;45.460;9.240;2023-05-29T04:50:36;19.20;99.90
22852;DHT22;11592;45.460;9.240;2023-05-29T04:53:05;19.10;99.90
22852;DHT22;11592;45.460;9.240;2023-05-29T04:55:32;19.00;99.90
22852;DHT22;11592;45.460;9.240;2023-05-29T04:57:59;19.00;99.90
22852;DHT22;11592;45.460;9.240;2023-05-29T05:00:26;18.80;99.90
22852;DHT22;11592;45.460;9.240;2023-05-29T05:02:54;18.70;99.90
22852;DHT22;11592;45.460;9.240;2023-05-29T05:05:21;18.70;99.90
22852;DHT22;11592;45.460;9.240;2023-05-29T05:07:48;18.60;99.90
22852;DHT22;11592;45.460;9.240;2023-05-29T05:10:15;18.60;99.90
22852;DHT22;11592;45.460;9.240;2023-05-29T05:12:42;18.60;99.90
22852;DHT22;11592;45.460;9.240;2023-05-29T05:15:09;18.60;99.90
22852;DHT22;11592;45.460;9.240;2023-05-29T05:17:36;18.70;99.90
22852;DHT22;11592;45.460;9.240;2023-05-29T05:20:04;18.80;99.90
22852;DHT22;11592;45.460;9.240;2023-05-29T05:22:32;19.00;99.90
22852;DHT22;11592;45.460;9.240;2023-05-29T05:24:59;19.20;99.90
22852;DHT22;11592;45.460;9.240;2023-05-29T05:27:27;19.40;99.90
22852;DHT22;11592;45.460;9.240;2023-05-29T05:29:54;19.40;99.90
22852;DHT22;11592;45.460;9.240;2023-05-29T05:32:20;19.30;99.90
22852;DHT22;11592;45.460;9.240;2023-05-29T05:34:47;19.40;99.90
22852;DHT22;11592;45.460;9.240;2023-05-29T05:37:14;19.40;99.90
22852;DHT22;11592;45.460;9.240;2023-05-29T05:39:41;19.30;99.90
22852;DHT22;11592;45.460;9.240;2023-05-29T05:42:07;19.30;99.90
22852;DHT22;11592;45.460;9.240;2023-05-29T05:44:34;19.40;99.90
22852;DHT22;11592;45.460;9.240;2023-05-29T05:47:02;19.50;99.90
22852;DHT22;11592;45.460;9.240;2023-05-29T05:49:30;19.50;99.90
22852;DHT22;11592;45.460;9.240;2023-05-29T05:51:57;19.50;99.90
22852;DHT22;11592;45.460;9.240;2023-05-29T05:54:24;19.50;99.90
22852;DHT22;11592;45.460;9.240;2023-05-29T05:56:51;19.60;99.90
22852;DHT22;11592;45.460;9.240;2023-05-29T05:59:18;19.70;99.90
22852;DHT22;11592;45.460;9.240;2023-05-29T06:01:45;19.80;99.90
22852;DHT22;11592;45.460;9.240;2023-05-29T06:04:11;19.80;99.90
22852;DHT22;11592;45.460;9.240;2023-05-29T06:06:38;19.90;99.90
22852;DHT22;11592;45.460;9.240;2023-05-29T06:09:06;19.90;99.90
22852;DHT22;11592;45.460;9.240;2023-05-29T06:11:32;19.90;99.90
22852;DHT22;11592;45.460;9.240;2023-05-29T06:13:59;19.90;99.90
22852;DHT22;11592;45.460;9.240;2023-05-29T06:16:26;19.90;99.90
22852;DHT22;11592;45.460;9.240;2023-05-29T06:18:53;20.00;99.90
22852;DHT22;11592;45.460;9.240;2023-05-29T06:21:20;20.00;99.90
22852;DHT22;11592;45.460;9.240;2023-05-29T06:23:48;20.10;99.90
22852;DHT22;11592;45.460;9.240;2023-05-29T06:26:14;20.20;99.90
22852;DHT22;11592;45.460;9.240;2023-05-29T06:28:42;20.40;99.90
22852;DHT22;11592;45.460;9.240;2023-05-29T06:31:09;20.50;99.90
22852;DHT22;11592;45.460;9.240;2023-05-29T06:33:36;20.50;99.90
22852;DHT22;11592;45.460;9.240;2023-05-29T06:36:04;20.50;99.90
22852;DHT22;11592;45.460;9.240;2023-05-29T06:38:32;20.60;99.90
22852;DHT22;11592;45.460;9.240;2023-05-29T06:40:58;20.70;99.90
22852;DHT22;11592;45.460;9.240;2023-05-29T06:43:26;20.90;99.90
22852;DHT22;11592;45.460;9.240;2023-05-29T06:45:54;21.00;99.90
22852;DHT22;11592;45.460;9.240;2023-05-29T06:48:21;21.10;99.90
22852;DHT22;11592;45.460;9.240;2023-05-29T06:50:48;21.20;99.90
22852;DHT22;11592;45.460;9.240;2023-05-29T06:53:15;21.40;99.90
22852;DHT22;11592;45.460;9.240;2023-05-29T06:55:41;21.50;99.90
22852;DHT22;11592;45.460;9.240;2023-05-29T06:58:10;21.70;99.90
22852;DHT22;11592;45.460;9.240;2023-05-29T07:00:37;21.80;99.90
22852;DHT22;11592;45.460;9.240;2023-05-29T07:03:04;21.80;99.90
22852;DHT22;11592;45.460;9.240;2023-05-29T07:05:31;21.90;99.90
22852;DHT22;11592;45.460;9.240;2023-05-29T07:07:58;22.00;99.90
22852;DHT22;11592;45.460;9.240;2023-05-29T07:10:25;22.20;99.90
22852;DHT22;11592;45.460;9.240;2023-05-29T07:12:51;22.10;99.90
22852;DHT22;11592;45.460;9.240;2023-05-29T07:15:18;22.20;99.90
22852;DHT22;11592;45.460;9.240;2023-05-29T07:17:45;22.20;99.90
22852;DHT22;11592;45.460;9.240;2023-05-29T07:20:12;22.30;99.90
22852;DHT22;11592;45.460;9.240;2023-05-29T07:22:41;22.50;99.90
22852;DHT22;11592;45.460;9.240;2023-05-29T07:25:08;22.60;99.90
22852;DHT22;11592;45.460;9.240;2023-05-29T07:27:35;22.80;99.90
22852;DHT22;11592;45.460;9.240;2023-05-29T07:30:02;22.90;99.90
22852;DHT22;11592;45.460;9.240;2023-05-29T07:32:29;23.00;99.90
22852;DHT22;11592;45.460;9.240;2023-05-29T07:34:57;23.10;99.90
22852;DHT22;11592;45.460;9.240;2023-05-29T07:37:24;23.30;99.90
22852;DHT22;11592;45.460;9.240;2023-05-29T07:39:51;23.50;99.90
22852;DHT22;11592;45.460;9.240;2023-05-29T07:42:17;23.60;99.90
22852;DHT22;11592;45.460;9.240;2023-05-29T07:44:44;23.80;99.90
22852;DHT22;11592;45.460;9.240;2023-05-29T07:47:12;23.70;99.90
22852;DHT22;11592;45.460;9.240;2023-05-29T07:49:39;23.80;99.90
22852;DHT22;11592;45.460;9.240;2023-05-29T07:52:06;23.80;99.90
22852;DHT22;11592;45.460;9.240;2023-05-29T07:54:32;24.00;99.90
22852;DHT22;11592;45.460;9.240;2023-05-29T07:57:00;24.10;99.90
22852;DHT22;11592;45.460;9.240;2023-05-29T07:59:26;24.10;99.90
22852;DHT22;11592;45.460;9.240;2023-05-29T08:01:53;24.20;99.90
22852;DHT22;11592;45.460;9.240;2023-05-29T08:04:20;24.30;99.90
22852;DHT22;11592;45.460;9.240;2023-05-29T08:06:47;24.40;99.90
22852;DHT22;11592;45.460;9.240;2023-05-29T08:09:14;24.50;99.90
22852;DHT22;11592;45.460;9.240;2023-05-29T08:11:41;24.40;99.90
22852;DHT22;11592;45.460;9.240;2023-05-29T08:14:08;24.30;99.90
22852;DHT22;11592;45.460;9.240;2023-05-29T08:16:35;24.30;99.90
22852;DHT22;11592;45.460;9.240;2023-05-29T08:19:02;24.30;99.90
22852;DHT22;11592;45.460;9.240;2023-05-29T08:21:29;24.40;99.90
22852;DHT22;11592;45.460;9.240;2023-05-29T08:23:57;24.30;99.90
22852;DHT22;11592;45.460;9.240;2023-05-29T08:26:23;24.30;99.90
22852;DHT22;11592;45.460;9.240;2023-05-29T08:28:50;24.40;99.90
22852;DHT22;11592;45.460;9.240;2023-05-29T08:31:17;24.40;99.90
22852;DHT22;11592;45.460;9.240;2023-05-29T08:33:44;24.40;99.90
22852;DHT22;11592;45.460;9.240;2023-05-29T08:36:12;24.50;99.90
22852;DHT22;11592;45.460;9.240;2023-05-29T08:38:38;24.80;99.90
22852;DHT22;11592;45.460;9.240;2023-05-29T08:41:07;24.70;99.90
22852;DHT22;11592;45.460;9.240;2023-05-29T08:43:34;24.70;99.90
22852;DHT22;11592;45.460;9.240;2023-05-29T08:46:02;24.70;99.90
22852;DHT22;11592;45.460;9.240;2023-05-29T08:48:30;24.60;99.90
22852;DHT22;11592;45.460;9.240;2023-05-29T08:50:58;24.60;99.90
22852;DHT22;11592;45.460;9.240;2023-05-29T08:53:27;24.60;99.90
22852;DHT22;11592;45.460;9.240;2023-05-29T08:55:54;24.70;99.90
22852;DHT22;11592;45.460;9.240;2023-05-29T08:58:22;24.80;99.90
22852;DHT22;11592;45.460;9.240;2023-05-29T09:00:50;25.10;99.90
22852;DHT22;11592;45.460;9.240;2023-05-29T09:03:18;25.20;99.90
22852;DHT22;11592;45.460;9.240;2023-05-29T09:05:48;25.40;99.90
22852;DHT22;11592;45.460;9.240;2023-05-29T09:08:15;25.60;99.90
22852;DHT22;11592;45.460;9.240;2023-05-29T09:10:44;25.70;99.90
22852;DHT22;11592;45.460;9.240;2023-05-29T09:13:11;25.80;99.90
22852;DHT22;11592;45.460;9.240;2023-05-29T09:15:40;25.80;99.90
22852;DHT22;11592;45.460;9.240;2023-05-29T09:18:10;25.80;99.90
22852;DHT22;11592;45.460;9.240;2023-05-29T09:20:38;25.90;99.90
22852;DHT22;11592;45.460;9.240;2023-05-29T09:23:08;25.90;99.90
22852;DHT22;11592;45.460;9.240;2023-05-29T09:25:39;25.90;99.90
22852;DHT22;11592;45.460;9.240;2023-05-29T09:28:08;26.10;99.90
22852;DHT22;11592;45.460;9.240;2023-05-29T09:30:36;26.20;99.90
22852;DHT22;11592;45.460;9.240;2023-05-29T09:33:04;26.20;99.90
22852;DHT22;11592;45.460;9.240;2023-05-29T09:35:35;26.20;99.90
22852;DHT22;11592;45.460;9.240;2023-05-29T09:38:02;26.30;99.90
22852;DHT22;11592;45.460;9.240;2023-05-29T09:40:30;26.50;99.90
22852;DHT22;11592;45.460;9.240;2023-05-29T09:43:17;26.60;99.90
22852;DHT22;11592;45.460;9.240;2023-05-29T09:45:45;26.60;99.90
22852;DHT22;11592;45.460;9.240;2023-05-29T09:48:14;26.60;99.90
22852;DHT22;11592;45.460;9.240;2023-05-29T09:50:42;26.50;99.90
22852;DHT22;11592;45.460;9.240;2023-05-29T09:53:25;26.50;99.90
22852;DHT22;11592;45.460;9.240;2023-05-29T09:55:53;26.60;99.90
22852;DHT22;11592;45.460;9.240;2023-05-29T09:58:24;26.70;99.90
22852;DHT22;11592;45.460;9.240;2023-05-29T10:00:52;26.90;99.90
22852;DHT22;11592;45.460;9.240;2023-05-29T10:03:20;26.90;99.90
22852;DHT22;11592;45.460;9.240;2023-05-29T10:05:54;26.90;99.90
22852;DHT22;11592;45.460;9.240;2023-05-29T10:08:24;27.00;99.90
22852;DHT22;11592;45.460;9.240;2023-05-29T10:10:59;27.00;99.90
22852;DHT22;11592;45.460;9.240;2023-05-29T10:13:28;27.00;99.90
22852;DHT22;11592;45.460;9.240;2023-05-29T10:15:59;26.90;99.90
22852;DHT22;11592;45.460;9.240;2023-05-29T10:18:32;26.90;99.90
22852;DHT22;11592;45.460;9.240;2023-05-29T10:21:02;26.90;99.90
22852;DHT22;11592;45.460;9.240;2023-05-29T10:23:30;27.10;99.90
22852;DHT22;11592;45.460;9.240;2023-05-29T10:26:05;27.20;99.90
22852;DHT22;11592;45.460;9.240;2023-05-29T10:28:34;27.40;99.90
22852;DHT22;11592;45.460;9.240;2023-05-29T10:31:05;27.60;99.90
22852;DHT22;11592;45.460;9.240;2023-05-29T10:36:14;27.80;99.90
22852;DHT22;11592;45.460;9.240;2023-05-29T10:38:46;27.50;99.90
22852;DHT22;11592;45.460;9.240;2023-05-29T10:43:59;27.20;99.90
22852;DHT22;11592;45.460;9.240;2023-05-29T10:49:19;27.90;99.90
22852;DHT22;11592;45.460;9.240;2023-05-29T10:51:46;28.00;99.90
22852;DHT22;11592;45.460;9.240;2023-05-29T10:54:13;27.80;99.90
22852;DHT22;11592;45.460;9.240;2023-05-29T10:56:40;27.50;99.90
22852;DHT22;11592;45.460;9.240;2023-05-29T10:59:10;27.10;99.90
22852;DHT22;11592;45.460;9.240;2023-05-29T11:01:40;27.00;99.90
22852;DHT22;11592;45.460;9.240;2023-05-29T11:06:47;26.20;99.90
22852;DHT22;11592;45.460;9.240;2023-05-29T11:09:36;26.30;99.90
22852;DHT22;11592;45.460;9.240;2023-05-29T11:12:24;26.60;99.90
22852;DHT22;11592;45.460;9.240;2023-05-29T11:15:08;27.00;99.90
22852;DHT22;11592;45.460;9.240;2023-05-29T11:25:27;27.00;99.90
22852;DHT22;11592;45.460;9.240;2023-05-29T11:27:54;27.20;99.90
22852;DHT22;11592;45.460;9.240;2023-05-29T11:30:21;27.60;99.90
22852;DHT22;11592;45.460;9.240;2023-05-29T11:32:49;28.00;99.90
22852;DHT22;11592;45.460;9.240;2023-05-29T11:35:21;28.30;99.90
22852;DHT22;11592;45.460;9.240;2023-05-29T11:37:48;28.60;99.90
22852;DHT22;11592;45.460;9.240;2023-05-29T11:40:17;28.90;99.90
22852;DHT22;11592;45.460;9.240;2023-05-29T11:42:46;28.80;99.90
22852;DHT22;11592;45.460;9.240;2023-05-29T11:45:19;28.80;99.90
22852;DHT22;11592;45.460;9.240;2023-05-29T11:50:27;29.30;99.90
22852;DHT22;11592;45.460;9.240;2023-05-29T11:52:55;29.50;99.90
22852;DHT22;11592;45.460;9.240;2023-05-29T11:55:23;29.60;99.70
22852;DHT22;11592;45.460;9.240;2023-05-29T11:57:55;29.30;99.40
22852;DHT22;11592;45.460;9.240;2023-05-29T12:00:22;29.50;99.90
22852;DHT22;11592;45.460;9.240;2023-05-29T12:02:51;29.90;99.10
22852;DHT22;11592;45.460;9.240;2023-05-29T12:05:18;30.00;98.30
22852;DHT22;11592;45.460;9.240;2023-05-29T12:07:51;29.30;98.60
22852;DHT22;11592;45.460;9.240;2023-05-29T12:10:20;29.40;99.10
22852;DHT22;11592;45.460;9.240;2023-05-29T12:12:49;29.90;98.30
22852;DHT22;11592;45.460;9.240;2023-05-29T12:15:16;30.10;98.60
22852;DHT22;11592;45.460;9.240;2023-05-29T12:17:45;30.20;97.00
22852;DHT22;11592;45.460;9.240;2023-05-29T12:20:13;30.10;96.70
22852;DHT22;11592;45.460;9.240;2023-05-29T12:22:42;30.40;98.00
22852;DHT22;11592;45.460;9.240;2023-05-29T12:25:17;30.70;98.10
22852;DHT22;11592;45.460;9.240;2023-05-29T12:27:47;30.60;96.00
22852;DHT22;11592;45.460;9.240;2023-05-29T12:30:24;30.50;95.80
22852;DHT22;11592;45.460;9.240;2023-05-29T12:32:59;30.70;96.10
22852;DHT22;11592;45.460;9.240;2023-05-29T12:35:28;30.90;97.50
22852;DHT22;11592;45.460;9.240;2023-05-29T12:38:00;31.20;96.60
22852;DHT22;11592;45.460;9.240;2023-05-29T12:40:32;31.30;96.70
22852;DHT22;11592;45.460;9.240;2023-05-29T12:43:07;31.70;97.80
22852;DHT22;11592;45.460;9.240;2023-05-29T12:45:35;31.90;96.00
22852;DHT22;11592;45.460;9.240;2023-05-29T12:48:04;31.80;94.40
22852;DHT22;11592;45.460;9.240;2023-05-29T12:50:33;31.60;93.80
22852;DHT22;11592;45.460;9.240;2023-05-29T12:53:05;31.30;94.30
22852;DHT22;11592;45.460;9.240;2023-05-29T12:55:41;31.20;95.10
22852;DHT22;11592;45.460;9.240;2023-05-29T12:58:13;31.20;94.50
22852;DHT22;11592;45.460;9.240;2023-05-29T13:00:42;31.00;95.30
22852;DHT22;11592;45.460;9.240;2023-05-29T13:03:09;30.70;95.20
22852;DHT22;11592;45.460;9.240;2023-05-29T13:05:37;31.20;96.20
22852;DHT22;11592;45.460;9.240;2023-05-29T13:08:06;31.70;96.70
22852;DHT22;11592;45.460;9.240;2023-05-29T13:10:34;32.00;93.40
22852;DHT22;11592;45.460;9.240;2023-05-29T13:13:01;31.90;93.50
22852;DHT22;11592;45.460;9.240;2023-05-29T13:15:28;31.80;92.70
22852;DHT22;11592;45.460;9.240;2023-05-29T13:17:55;31.60;96.40
22852;DHT22;11592;45.460;9.240;2023-05-29T13:20:22;31.90;95.60
22852;DHT22;11592;45.460;9.240;2023-05-29T13:22:49;32.20;97.50
22852;DHT22;11592;45.460;9.240;2023-05-29T13:25:18;32.60;95.50
22852;DHT22;11592;45.460;9.240;2023-05-29T13:27:48;32.40;93.90
22852;DHT22;11592;45.460;9.240;2023-05-29T13:30:16;32.00;94.30
22852;DHT22;11592;45.460;9.240;2023-05-29T13:32:43;31.40;95.60
22852;DHT22;11592;45.460;9.240;2023-05-29T13:35:10;31.40;95.90
22852;DHT22;11592;45.460;9.240;2023-05-29T13:37:38;31.30;96.60
22852;DHT22;11592;45.460;9.240;2023-05-29T13:40:06;30.80;94.20
22852;DHT22;11592;45.460;9.240;2023-05-29T13:42:36;30.20;95.30
22852;DHT22;11592;45.460;9.240;2023-05-29T13:45:06;29.90;97.20
22852;DHT22;11592;45.460;9.240;2023-05-29T13:47:34;29.80;96.00
22852;DHT22;11592;45.460;9.240;2023-05-29T13:50:02;29.90;97.60
22852;DHT22;11592;45.460;9.240;2023-05-29T13:52:29;29.70;96.50
22852;DHT22;11592;45.460;9.240;2023-05-29T13:54:55;29.80;96.80
22852;DHT22;11592;45.460;9.240;2023-05-29T13:57:24;29.70;98.40
22852;DHT22;11592;45.460;9.240;2023-05-29T13:59:51;29.70;99.30
22852;DHT22;11592;45.460;9.240;2023-05-29T14:02:18;29.80;98.40
22852;DHT22;11592;45.460;9.240;2023-05-29T14:04:45;29.90;97.20
22852;DHT22;11592;45.460;9.240;2023-05-29T14:07:12;30.00;96.50
22852;DHT22;11592;45.460;9.240;2023-05-29T14:09:39;29.70;99.20
22852;DHT22;11592;45.460;9.240;2023-05-29T14:12:06;29.70;97.90
22852;DHT22;11592;45.460;9.240;2023-05-29T14:14:33;29.50;98.10
22852;DHT22;11592;45.460;9.240;2023-05-29T14:17:01;29.50;97.10
22852;DHT22;11592;45.460;9.240;2023-05-29T14:19:29;29.40;96.50
22852;DHT22;11592;45.460;9.240;2023-05-29T14:21:55;29.20;96.00
22852;DHT22;11592;45.460;9.240;2023-05-29T14:24:22;29.10;96.50
22852;DHT22;11592;45.460;9.240;2023-05-29T14:26:51;29.10;96.70
22852;DHT22;11592;45.460;9.240;2023-05-29T14:29:18;29.70;98.60
22852;DHT22;11592;45.460;9.240;2023-05-29T14:31:45;29.50;96.40
22852;DHT22;11592;45.460;9.240;2023-05-29T14:34:12;29.50;95.80
22852;DHT22;11592;45.460;9.240;2023-05-29T14:36:39;29.70;95.80
22852;DHT22;11592;45.460;9.240;2023-05-29T14:39:07;30.10;98.20
22852;DHT22;11592;45.460;9.240;2023-05-29T14:41:34;30.30;96.40
22852;DHT22;11592;45.460;9.240;2023-05-29T14:44:02;31.10;96.30
22852;DHT22;11592;45.460;9.240;2023-05-29T14:46:29;31.90;93.80
22852;DHT22;11592;45.460;9.240;2023-05-29T14:48:59;31.80;92.60
22852;DHT22;11592;45.460;9.240;2023-05-29T14:51:27;31.20;96.10
22852;DHT22;11592;45.460;9.240;2023-05-29T14:53:54;30.50;95.80
22852;DHT22;11592;45.460;9.240;2023-05-29T14:56:21;29.90;97.30
22852;DHT22;11592;45.460;9.240;2023-05-29T14:58:48;29.50;98.70
22852;DHT22;11592;45.460;9.240;2023-05-29T15:01:16;29.10;99.10
22852;DHT22;11592;45.460;9.240;2023-05-29T15:03:43;29.00;99.90
22852;DHT22;11592;45.460;9.240;2023-05-29T15:06:11;29.00;99.20
22852;DHT22;11592;45.460;9.240;2023-05-29T15:08:39;29.40;96.80
22852;DHT22;11592;45.460;9.240;2023-05-29T15:11:06;30.00;98.80
22852;DHT22;11592;45.460;9.240;2023-05-29T15:13:34;30.10;96.60
22852;DHT22;11592;45.460;9.240;2023-05-29T15:16:01;30.20;95.80
22852;DHT22;11592;45.460;9.240;2023-05-29T15:18:30;30.50;97.20
22852;DHT22;11592;45.460;9.240;2023-05-29T15:20:57;30.70;96.00
22852;DHT22;11592;45.460;9.240;2023-05-29T15:23:25;30.70;95.80
22852;DHT22;11592;45.460;9.240;2023-05-29T15:25:52;30.70;95.90
22852;DHT22;11592;45.460;9.240;2023-05-29T15:28:20;30.40;94.70
22852;DHT22;11592;45.460;9.240;2023-05-29T15:30:47;30.10;94.40
22852;DHT22;11592;45.460;9.240;2023-05-29T15:33:14;29.80;95.20
22852;DHT22;11592;45.460;9.240;2023-05-29T15:35:41;29.50;96.30
22852;DHT22;11592;45.460;9.240;2023-05-29T15:38:09;29.40;97.50
22852;DHT22;11592;45.460;9.240;2023-05-29T15:40:36;29.10;96.90
22852;DHT22;11592;45.460;9.240;2023-05-29T15:43:03;29.00;98.20
22852;DHT22;11592;45.460;9.240;2023-05-29T15:45:31;28.90;97.80
22852;DHT22;11592;45.460;9.240;2023-05-29T15:47:57;28.70;97.20
22852;DHT22;11592;45.460;9.240;2023-05-29T15:50:24;28.60;98.10
22852;DHT22;11592;45.460;9.240;2023-05-29T15:52:51;28.50;97.00
22852;DHT22;11592;45.460;9.240;2023-05-29T15:55:22;28.50;96.90
22852;DHT22;11592;45.460;9.240;2023-05-29T15:57:50;28.40;97.80
22852;DHT22;11592;45.460;9.240;2023-05-29T16:00:18;28.40;96.80